Ridgeway, Ohio
Current Conditions -  °F | °C
As of 6:15 PM on Saturday 25 Oct 2014 (Local Time) from KEDJ Reporting Station
Clear Clear  
Wind Chill: 66°   Ceiling: Unl
Heat Index: 66°   Visibility: 10mi
Dew Point: 36°   Wind: 13mph
Humidity: 32%   Direction: 280°W
Pressure: 29.88"   Gusts: 24mph
Location:  40.51°N, 83.57°W
Report Text: KEDJ 252215Z AUTO 28011G21KT 10SM CLR 19/02 A2988 RMK AO1
Loading
Personal Weather Stations






























Interactive Weather Map New forecast layout! Learn more

10-Day Weather Forecast

Advertisements
Track Severe Weather on mobile